sensor_id;sensor_type;location;lat;lon;timestamp;temperature;humidity
13093;DHT22;6612;49.568;11.000;2023-05-21T00:02:03;22.00;48.70
13093;DHT22;6612;49.568;11.000;2023-05-21T00:04:30;22.00;48.70
13093;DHT22;6612;49.568;11.000;2023-05-21T00:06:58;22.00;48.60
13093;DHT22;6612;49.568;11.000;2023-05-21T00:09:25;22.00;48.70
13093;DHT22;6612;49.568;11.000;2023-05-21T00:11:52;21.90;48.70
13093;DHT22;6612;49.568;11.000;2023-05-21T00:14:20;21.90;48.80
13093;DHT22;6612;49.568;11.000;2023-05-21T00:16:47;21.90;48.90
13093;DHT22;6612;49.568;11.000;2023-05-21T00:19:14;21.90;48.80
13093;DHT22;6612;49.568;11.000;2023-05-21T00:21:42;21.90;49.00
13093;DHT22;6612;49.568;11.000;2023-05-21T00:24:10;21.80;48.90
13093;DHT22;6612;49.568;11.000;2023-05-21T00:26:37;21.80;49.00
13093;DHT22;6612;49.568;11.000;2023-05-21T00:29:04;21.80;49.00
13093;DHT22;6612;49.568;11.000;2023-05-21T00:31:33;21.80;49.10
13093;DHT22;6612;49.568;11.000;2023-05-21T00:34:00;21.80;49.20
13093;DHT22;6612;49.568;11.000;2023-05-21T00:36:27;21.80;49.30
13093;DHT22;6612;49.568;11.000;2023-05-21T00:38:55;21.80;49.50
13093;DHT22;6612;49.568;11.000;2023-05-21T00:41:22;21.80;49.40
13093;DHT22;6612;49.568;11.000;2023-05-21T00:43:50;21.70;49.40
13093;DHT22;6612;49.568;11.000;2023-05-21T00:46:19;21.70;49.50
13093;DHT22;6612;49.568;11.000;2023-05-21T00:48:48;21.70;49.50
13093;DHT22;6612;49.568;11.000;2023-05-21T00:51:16;21.70;49.60
13093;DHT22;6612;49.568;11.000;2023-05-21T00:53:48;21.70;49.60
13093;DHT22;6612;49.568;11.000;2023-05-21T00:56:16;21.70;49.80
13093;DHT22;6612;49.568;11.000;2023-05-21T00:58:44;21.60;49.70
13093;DHT22;6612;49.568;11.000;2023-05-21T01:01:12;21.60;49.70
13093;DHT22;6612;49.568;11.000;2023-05-21T01:03:41;21.60;49.70
13093;DHT22;6612;49.568;11.000;2023-05-21T01:06:11;21.60;49.80
13093;DHT22;6612;49.568;11.000;2023-05-21T01:08:39;21.60;50.10
13093;DHT22;6612;49.568;11.000;2023-05-21T01:11:07;21.60;50.00
13093;DHT22;6612;49.568;11.000;2023-05-21T01:13:37;21.50;50.60
13093;DHT22;6612;49.568;11.000;2023-05-21T01:16:05;21.50;50.10
13093;DHT22;6612;49.568;11.000;2023-05-21T01:18:33;21.50;50.10
13093;DHT22;6612;49.568;11.000;2023-05-21T01:21:02;21.40;50.00
13093;DHT22;6612;49.568;11.000;2023-05-21T01:23:31;21.40;50.10
13093;DHT22;6612;49.568;11.000;2023-05-21T01:25:58;21.40;50.30
13093;DHT22;6612;49.568;11.000;2023-05-21T01:28:25;21.40;50.30
13093;DHT22;6612;49.568;11.000;2023-05-21T01:30:57;21.40;50.30
13093;DHT22;6612;49.568;11.000;2023-05-21T01:33:32;21.30;50.50
13093;DHT22;6612;49.568;11.000;2023-05-21T01:36:05;21.30;50.60
13093;DHT22;6612;49.568;11.000;2023-05-21T01:38:39;21.30;50.70
13093;DHT22;6612;49.568;11.000;2023-05-21T01:41:10;21.30;50.70
13093;DHT22;6612;49.568;11.000;2023-05-21T01:43:41;21.30;50.70
13093;DHT22;6612;49.568;11.000;2023-05-21T01:46:13;21.30;50.70
13093;DHT22;6612;49.568;11.000;2023-05-21T01:48:41;21.30;50.70
13093;DHT22;6612;49.568;11.000;2023-05-21T01:51:09;21.30;50.70
13093;DHT22;6612;49.568;11.000;2023-05-21T01:53:38;21.20;50.70
13093;DHT22;6612;49.568;11.000;2023-05-21T01:56:05;21.20;50.90
13093;DHT22;6612;49.568;11.000;2023-05-21T01:58:32;21.20;50.90
13093;DHT22;6612;49.568;11.000;2023-05-21T02:00:59;21.20;50.90
13093;DHT22;6612;49.568;11.000;2023-05-21T02:03:27;21.20;51.10
13093;DHT22;6612;49.568;11.000;2023-05-21T02:05:55;21.10;51.10
13093;DHT22;6612;49.568;11.000;2023-05-21T02:08:22;21.10;51.10
13093;DHT22;6612;49.568;11.000;2023-05-21T02:10:51;21.10;51.20
13093;DHT22;6612;49.568;11.000;2023-05-21T02:13:18;21.10;51.50
13093;DHT22;6612;49.568;11.000;2023-05-21T02:15:47;21.00;51.40
13093;DHT22;6612;49.568;11.000;2023-05-21T02:18:14;21.00;51.60
13093;DHT22;6612;49.568;11.000;2023-05-21T02:20:43;21.00;51.60
13093;DHT22;6612;49.568;11.000;2023-05-21T02:23:09;21.00;51.70
13093;DHT22;6612;49.568;11.000;2023-05-21T02:25:37;20.90;51.60
13093;DHT22;6612;49.568;11.000;2023-05-21T02:28:05;20.90;52.50
13093;DHT22;6612;49.568;11.000;2023-05-21T02:30:32;20.90;52.20
13093;DHT22;6612;49.568;11.000;2023-05-21T02:32:59;20.90;52.20
13093;DHT22;6612;49.568;11.000;2023-05-21T02:35:27;20.80;52.10
13093;DHT22;6612;49.568;11.000;2023-05-21T02:37:54;20.80;52.10
13093;DHT22;6612;49.568;11.000;2023-05-21T02:40:23;20.80;52.30
13093;DHT22;6612;49.568;11.000;2023-05-21T02:42:51;20.80;52.30
13093;DHT22;6612;49.568;11.000;2023-05-21T02:45:19;20.70;52.40
13093;DHT22;6612;49.568;11.000;2023-05-21T02:47:46;20.70;52.50
13093;DHT22;6612;49.568;11.000;2023-05-21T02:50:13;20.70;52.50
13093;DHT22;6612;49.568;11.000;2023-05-21T02:52:40;20.70;52.70
13093;DHT22;6612;49.568;11.000;2023-05-21T02:55:08;20.60;52.60
13093;DHT22;6612;49.568;11.000;2023-05-21T02:57:35;20.60;52.80
13093;DHT22;6612;49.568;11.000;2023-05-21T03:00:03;20.60;52.80
13093;DHT22;6612;49.568;11.000;2023-05-21T03:02:32;20.60;53.00
13093;DHT22;6612;49.568;11.000;2023-05-21T03:04:59;20.60;53.20
13093;DHT22;6612;49.568;11.000;2023-05-21T03:07:26;20.50;53.20
13093;DHT22;6612;49.568;11.000;2023-05-21T03:09:53;20.50;53.20
13093;DHT22;6612;49.568;11.000;2023-05-21T03:12:20;20.50;53.40
13093;DHT22;6612;49.568;11.000;2023-05-21T03:14:48;20.50;53.40
13093;DHT22;6612;49.568;11.000;2023-05-21T03:17:16;20.50;53.50
13093;DHT22;6612;49.568;11.000;2023-05-21T03:19:45;20.40;54.20
13093;DHT22;6612;49.568;11.000;2023-05-21T03:22:13;20.40;53.80
13093;DHT22;6612;49.568;11.000;2023-05-21T03:24:40;20.40;53.70
13093;DHT22;6612;49.568;11.000;2023-05-21T03:27:09;20.40;53.80
13093;DHT22;6612;49.568;11.000;2023-05-21T03:29:36;20.40;54.00
13093;DHT22;6612;49.568;11.000;2023-05-21T03:32:05;20.40;54.00
13093;DHT22;6612;49.568;11.000;2023-05-21T03:34:32;20.40;54.20
13093;DHT22;6612;49.568;11.000;2023-05-21T03:37:01;20.40;54.10
13093;DHT22;6612;49.568;11.000;2023-05-21T03:39:28;20.40;54.30
13093;DHT22;6612;49.568;11.000;2023-05-21T03:41:55;20.40;54.40
13093;DHT22;6612;49.568;11.000;2023-05-21T03:44:22;20.40;54.50
13093;DHT22;6612;49.568;11.000;2023-05-21T03:46:49;20.40;54.60
13093;DHT22;6612;49.568;11.000;2023-05-21T03:49:16;20.40;54.90
13093;DHT22;6612;49.568;11.000;2023-05-21T03:51:43;20.30;54.70
13093;DHT22;6612;49.568;11.000;2023-05-21T03:54:11;20.30;54.80
13093;DHT22;6612;49.568;11.000;2023-05-21T03:56:38;20.30;55.00
13093;DHT22;6612;49.568;11.000;2023-05-21T03:59:05;20.30;55.30
13093;DHT22;6612;49.568;11.000;2023-05-21T04:01:32;20.30;55.00
13093;DHT22;6612;49.568;11.000;2023-05-21T04:04:00;20.40;55.10
13093;DHT22;6612;49.568;11.000;2023-05-21T04:06:27;20.40;55.90
13093;DHT22;6612;49.568;11.000;2023-05-21T04:08:54;20.40;55.30
13093;DHT22;6612;49.568;11.000;2023-05-21T04:11:23;20.40;55.40
13093;DHT22;6612;49.568;11.000;2023-05-21T04:13:50;20.40;55.50
13093;DHT22;6612;49.568;11.000;2023-05-21T04:16:17;20.40;55.50
13093;DHT22;6612;49.568;11.000;2023-05-21T04:18:45;20.40;55.50
13093;DHT22;6612;49.568;11.000;2023-05-21T04:21:12;20.40;55.50
13093;DHT22;6612;49.568;11.000;2023-05-21T04:23:39;20.40;55.50
13093;DHT22;6612;49.568;11.000;2023-05-21T04:26:06;20.50;55.70
13093;DHT22;6612;49.568;11.000;2023-05-21T04:28:35;20.50;55.70
13093;DHT22;6612;49.568;11.000;2023-05-21T04:31:02;20.50;55.90
13093;DHT22;6612;49.568;11.000;2023-05-21T04:33:30;20.50;55.90
13093;DHT22;6612;49.568;11.000;2023-05-21T04:35:57;20.50;55.90
13093;DHT22;6612;49.568;11.000;2023-05-21T04:38:24;20.60;56.10
13093;DHT22;6612;49.568;11.000;2023-05-21T04:40:51;20.60;56.20
13093;DHT22;6612;49.568;11.000;2023-05-21T04:43:18;20.60;56.10
13093;DHT22;6612;49.568;11.000;2023-05-21T04:45:51;20.60;56.20
13093;DHT22;6612;49.568;11.000;2023-05-21T04:48:19;20.70;56.30
13093;DHT22;6612;49.568;11.000;2023-05-21T04:50:47;20.70;56.50
13093;DHT22;6612;49.568;11.000;2023-05-21T04:53:14;20.70;56.40
13093;DHT22;6612;49.568;11.000;2023-05-21T04:55:41;20.80;56.40
13093;DHT22;6612;49.568;11.000;2023-05-21T04:58:08;20.90;56.60
13093;DHT22;6612;49.568;11.000;2023-05-21T05:00:36;20.90;56.40
13093;DHT22;6612;49.568;11.000;2023-05-21T05:03:05;21.00;56.50
13093;DHT22;6612;49.568;11.000;2023-05-21T05:05:32;21.00;56.70
13093;DHT22;6612;49.568;11.000;2023-05-21T05:07:59;21.10;56.70
13093;DHT22;6612;49.568;11.000;2023-05-21T05:10:25;21.20;56.90
13093;DHT22;6612;49.568;11.000;2023-05-21T05:12:52;21.30;57.20
13093;DHT22;6612;49.568;11.000;2023-05-21T05:15:19;21.40;56.90
13093;DHT22;6612;49.568;11.000;2023-05-21T05:17:46;21.50;57.10
13093;DHT22;6612;49.568;11.000;2023-05-21T05:20:16;21.60;56.90
13093;DHT22;6612;49.568;11.000;2023-05-21T05:22:43;21.70;56.80
13093;DHT22;6612;49.568;11.000;2023-05-21T05:25:10;21.80;56.50
13093;DHT22;6612;49.568;11.000;2023-05-21T05:27:37;21.90;56.50
13093;DHT22;6612;49.568;11.000;2023-05-21T05:30:05;22.00;56.10
13093;DHT22;6612;49.568;11.000;2023-05-21T05:32:32;22.10;56.00
13093;DHT22;6612;49.568;11.000;2023-05-21T05:35:00;22.20;55.90
13093;DHT22;6612;49.568;11.000;2023-05-21T05:37:28;22.30;55.80
13093;DHT22;6612;49.568;11.000;2023-05-21T05:39:55;22.40;55.40
13093;DHT22;6612;49.568;11.000;2023-05-21T05:42:22;22.50;55.60
13093;DHT22;6612;49.568;11.000;2023-05-21T05:44:49;22.60;55.50
13093;DHT22;6612;49.568;11.000;2023-05-21T05:47:16;22.80;55.60
13093;DHT22;6612;49.568;11.000;2023-05-21T05:49:43;23.00;55.60
13093;DHT22;6612;49.568;11.000;2023-05-21T05:52:10;23.20;56.40
13093;DHT22;6612;49.568;11.000;2023-05-21T05:54:39;23.50;55.50
13093;DHT22;6612;49.568;11.000;2023-05-21T05:57:06;23.80;55.20
13093;DHT22;6612;49.568;11.000;2023-05-21T05:59:33;24.20;55.10
13093;DHT22;6612;49.568;11.000;2023-05-21T06:02:00;24.50;54.90
13093;DHT22;6612;49.568;11.000;2023-05-21T06:04:27;24.80;53.90
13093;DHT22;6612;49.568;11.000;2023-05-21T06:06:54;25.10;53.40
13093;DHT22;6612;49.568;11.000;2023-05-21T06:09:22;25.30;52.70
13093;DHT22;6612;49.568;11.000;2023-05-21T06:11:50;25.60;51.70
13093;DHT22;6612;49.568;11.000;2023-05-21T06:14:17;25.70;51.10
13093;DHT22;6612;49.568;11.000;2023-05-21T06:16:44;25.80;50.60
13093;DHT22;6612;49.568;11.000;2023-05-21T06:19:11;25.90;50.00
13093;DHT22;6612;49.568;11.000;2023-05-21T06:21:38;26.00;49.60
13093;DHT22;6612;49.568;11.000;2023-05-21T06:24:06;26.00;49.50
13093;DHT22;6612;49.568;11.000;2023-05-21T06:26:33;26.10;49.50
13093;DHT22;6612;49.568;11.000;2023-05-21T06:29:01;26.20;49.50
13093;DHT22;6612;49.568;11.000;2023-05-21T06:31:29;26.30;49.10
13093;DHT22;6612;49.568;11.000;2023-05-21T06:33:57;26.50;49.30
13093;DHT22;6612;49.568;11.000;2023-05-21T06:36:25;26.70;49.00
13093;DHT22;6612;49.568;11.000;2023-05-21T06:38:54;26.90;48.50
13093;DHT22;6612;49.568;11.000;2023-05-21T06:41:22;27.10;47.90
13093;DHT22;6612;49.568;11.000;2023-05-21T06:43:49;27.20;47.00
13093;DHT22;6612;49.568;11.000;2023-05-21T06:46:17;27.30;46.20
13093;DHT22;6612;49.568;11.000;2023-05-21T06:48:44;27.30;45.60
13093;DHT22;6612;49.568;11.000;2023-05-21T06:51:11;27.20;45.50
13093;DHT22;6612;49.568;11.000;2023-05-21T06:53:38;27.20;45.00
13093;DHT22;6612;49.568;11.000;2023-05-21T06:56:06;27.20;45.20
13093;DHT22;6612;49.568;11.000;2023-05-21T06:58:33;27.10;44.80
13093;DHT22;6612;49.568;11.000;2023-05-21T07:01:00;27.20;45.70
13093;DHT22;6612;49.568;11.000;2023-05-21T07:03:29;27.30;45.90
13093;DHT22;6612;49.568;11.000;2023-05-21T07:05:56;27.50;45.50
13093;DHT22;6612;49.568;11.000;2023-05-21T07:08:23;27.60;44.70
13093;DHT22;6612;49.568;11.000;2023-05-21T07:10:50;27.60;44.30
13093;DHT22;6612;49.568;11.000;2023-05-21T07:13:17;27.70;44.10
13093;DHT22;6612;49.568;11.000;2023-05-21T07:15:44;27.60;44.10
13093;DHT22;6612;49.568;11.000;2023-05-21T07:18:11;27.60;43.80
13093;DHT22;6612;49.568;11.000;2023-05-21T07:20:40;27.50;43.70
13093;DHT22;6612;49.568;11.000;2023-05-21T07:23:07;27.40;43.80
13093;DHT22;6612;49.568;11.000;2023-05-21T07:25:34;27.30;43.90
13093;DHT22;6612;49.568;11.000;2023-05-21T07:28:01;27.30;43.50
13093;DHT22;6612;49.568;11.000;2023-05-21T07:30:28;27.20;43.30
13093;DHT22;6612;49.568;11.000;2023-05-21T07:32:55;27.20;43.30
13093;DHT22;6612;49.568;11.000;2023-05-21T07:35:22;27.10;43.30
13093;DHT22;6612;49.568;11.000;2023-05-21T07:37:50;26.90;43.40
13093;DHT22;6612;49.568;11.000;2023-05-21T07:40:17;26.90;43.40
13093;DHT22;6612;49.568;11.000;2023-05-21T07:42:44;26.70;43.70
13093;DHT22;6612;49.568;11.000;2023-05-21T07:45:11;26.70;43.60
13093;DHT22;6612;49.568;11.000;2023-05-21T07:47:38;26.70;44.00
13093;DHT22;6612;49.568;11.000;2023-05-21T07:50:06;26.70;44.20
13093;DHT22;6612;49.568;11.000;2023-05-21T07:52:33;26.70;44.30
13093;DHT22;6612;49.568;11.000;2023-05-21T07:55:01;26.70;44.00
13093;DHT22;6612;49.568;11.000;2023-05-21T07:57:28;26.80;43.90
13093;DHT22;6612;49.568;11.000;2023-05-21T07:59:55;26.80;43.70
13093;DHT22;6612;49.568;11.000;2023-05-21T08:02:23;26.80;43.90
13093;DHT22;6612;49.568;11.000;2023-05-21T08:04:50;26.80;43.90
13093;DHT22;6612;49.568;11.000;2023-05-21T08:07:19;26.90;44.10
13093;DHT22;6612;49.568;11.000;2023-05-21T08:09:46;26.90;43.90
13093;DHT22;6612;49.568;11.000;2023-05-21T08:12:15;26.90;43.90
13093;DHT22;6612;49.568;11.000;2023-05-21T08:14:43;27.00;43.40
13093;DHT22;6612;49.568;11.000;2023-05-21T08:17:10;27.00;43.10
13093;DHT22;6612;49.568;11.000;2023-05-21T08:19:37;27.00;43.40
13093;DHT22;6612;49.568;11.000;2023-05-21T08:22:04;27.00;43.50
13093;DHT22;6612;49.568;11.000;2023-05-21T08:24:32;27.00;43.70
13093;DHT22;6612;49.568;11.000;2023-05-21T08:26:59;27.10;43.60
13093;DHT22;6612;49.568;11.000;2023-05-21T08:29:27;27.20;43.20
13093;DHT22;6612;49.568;11.000;2023-05-21T08:31:54;27.20;42.70
13093;DHT22;6612;49.568;11.000;2023-05-21T08:34:21;27.10;42.50
13093;DHT22;6612;49.568;11.000;2023-05-21T08:36:49;27.10;42.40
13093;DHT22;6612;49.568;11.000;2023-05-21T08:39:18;27.00;42.80
13093;DHT22;6612;49.568;11.000;2023-05-21T08:41:45;27.00;42.80
13093;DHT22;6612;49.568;11.000;2023-05-21T08:44:14;27.00;43.80
13093;DHT22;6612;49.568;11.000;2023-05-21T08:46:48;27.00;43.00
13093;DHT22;6612;49.568;11.000;2023-05-21T08:49:18;27.00;42.90
13093;DHT22;6612;49.568;11.000;2023-05-21T08:51:48;27.00;43.00
13093;DHT22;6612;49.568;11.000;2023-05-21T08:54:16;27.10;43.40
13093;DHT22;6612;49.568;11.000;2023-05-21T08:56:43;27.00;42.80
13093;DHT22;6612;49.568;11.000;2023-05-21T08:59:12;27.10;43.00
13093;DHT22;6612;49.568;11.000;2023-05-21T09:01:39;27.10;43.00
13093;DHT22;6612;49.568;11.000;2023-05-21T09:04:09;27.20;43.20
13093;DHT22;6612;49.568;11.000;2023-05-21T09:06:39;27.30;43.30
13093;DHT22;6612;49.568;11.000;2023-05-21T09:09:12;27.30;43.30
13093;DHT22;6612;49.568;11.000;2023-05-21T09:11:40;27.40;43.00
13093;DHT22;6612;49.568;11.000;2023-05-21T09:14:09;27.50;43.10
13093;DHT22;6612;49.568;11.000;2023-05-21T09:16:37;27.60;42.70
13093;DHT22;6612;49.568;11.000;2023-05-21T09:19:04;27.60;42.40
13093;DHT22;6612;49.568;11.000;2023-05-21T09:21:33;27.60;42.30
13093;DHT22;6612;49.568;11.000;2023-05-21T09:24:00;27.70;42.30
13093;DHT22;6612;49.568;11.000;2023-05-21T09:26:27;27.70;41.70
13093;DHT22;6612;49.568;11.000;2023-05-21T09:28:56;27.80;41.70
13093;DHT22;6612;49.568;11.000;2023-05-21T09:31:24;27.90;41.90
13093;DHT22;6612;49.568;11.000;2023-05-21T09:33:51;27.90;41.50
13093;DHT22;6612;49.568;11.000;2023-05-21T09:36:20;27.90;41.50
13093;DHT22;6612;49.568;11.000;2023-05-21T09:38:49;28.00;41.60
13093;DHT22;6612;49.568;11.000;2023-05-21T09:41:17;28.10;41.80
13093;DHT22;6612;49.568;11.000;2023-05-21T09:43:44;28.20;42.10
13093;DHT22;6612;49.568;11.000;2023-05-21T09:46:11;28.30;41.70
13093;DHT22;6612;49.568;11.000;2023-05-21T09:48:39;28.40;41.10
13093;DHT22;6612;49.568;11.000;2023-05-21T09:51:11;28.50;41.40
13093;DHT22;6612;49.568;11.000;2023-05-21T09:53:49;28.60;39.50
13093;DHT22;6612;49.568;11.000;2023-05-21T09:56:19;28.50;37.80
13093;DHT22;6612;49.568;11.000;2023-05-21T09:58:48;28.50;39.50
13093;DHT22;6612;49.568;11.000;2023-05-21T10:01:18;28.50;39.20
13093;DHT22;6612;49.568;11.000;2023-05-21T10:03:49;28.50;40.00
13093;DHT22;6612;49.568;11.000;2023-05-21T10:06:16;28.50;40.10
13093;DHT22;6612;49.568;11.000;2023-05-21T10:08:44;28.50;40.00
13093;DHT22;6612;49.568;11.000;2023-05-21T10:11:15;28.50;39.80
13093;DHT22;6612;49.568;11.000;2023-05-21T10:13:46;28.60;40.20
13093;DHT22;6612;49.568;11.000;2023-05-21T10:16:14;28.60;40.20
13093;DHT22;6612;49.568;11.000;2023-05-21T10:18:43;28.60;40.30
13093;DHT22;6612;49.568;11.000;2023-05-21T10:21:12;28.60;40.30
13093;DHT22;6612;49.568;11.000;2023-05-21T10:23:40;28.60;40.40
13093;DHT22;6612;49.568;11.000;2023-05-21T10:26:08;28.60;40.60
13093;DHT22;6612;49.568;11.000;2023-05-21T10:28:37;28.60;40.50
13093;DHT22;6612;49.568;11.000;2023-05-21T10:31:05;28.70;40.60
13093;DHT22;6612;49.568;11.000;2023-05-21T10:33:34;28.70;40.50
13093;DHT22;6612;49.568;11.000;2023-05-21T10:36:01;28.70;41.40
13093;DHT22;6612;49.568;11.000;2023-05-21T10:38:29;28.80;41.50
13093;DHT22;6612;49.568;11.000;2023-05-21T10:40:58;28.80;40.50
13093;DHT22;6612;49.568;11.000;2023-05-21T10:43:45;28.90;40.40
13093;DHT22;6612;49.568;11.000;2023-05-21T10:46:52;28.90;40.10
13093;DHT22;6612;49.568;11.000;2023-05-21T10:49:37;29.00;40.30
13093;DHT22;6612;49.568;11.000;2023-05-21T10:52:17;29.10;40.00
13093;DHT22;6612;49.568;11.000;2023-05-21T10:55:01;29.20;39.40
13093;DHT22;6612;49.568;11.000;2023-05-21T10:57:52;29.20;39.30
13093;DHT22;6612;49.568;11.000;2023-05-21T11:00:24;29.30;39.40
13093;DHT22;6612;49.568;11.000;2023-05-21T11:02:53;29.30;39.20
13093;DHT22;6612;49.568;11.000;2023-05-21T11:05:37;29.30;39.20
13093;DHT22;6612;49.568;11.000;2023-05-21T11:08:05;29.30;39.10
13093;DHT22;6612;49.568;11.000;2023-05-21T11:10:50;29.30;39.60
13093;DHT22;6612;49.568;11.000;2023-05-21T11:13:17;29.30;39.30
13093;DHT22;6612;49.568;11.000;2023-05-21T11:16:06;29.30;39.50
13093;DHT22;6612;49.568;11.000;2023-05-21T11:18:57;29.40;39.50
13093;DHT22;6612;49.568;11.000;2023-05-21T11:21:33;29.40;39.60
13093;DHT22;6612;49.568;11.000;2023-05-21T11:24:02;29.50;39.60
13093;DHT22;6612;49.568;11.000;2023-05-21T11:26:57;29.50;39.60
13093;DHT22;6612;49.568;11.000;2023-05-21T11:29:19;29.60;39.70
13093;DHT22;6612;49.568;11.000;2023-05-21T11:32:00;29.60;39.40
13093;DHT22;6612;49.568;11.000;2023-05-21T11:34:36;29.60;38.80
13093;DHT22;6612;49.568;11.000;2023-05-21T11:37:23;29.70;38.50
13093;DHT22;6612;49.568;11.000;2023-05-21T11:39:53;29.70;38.40
13093;DHT22;6612;49.568;11.000;2023-05-21T11:42:31;29.70;38.20
13093;DHT22;6612;49.568;11.000;2023-05-21T11:44:59;29.70;37.30
13093;DHT22;6612;49.568;11.000;2023-05-21T11:47:28;29.70;37.50
13093;DHT22;6612;49.568;11.000;2023-05-21T11:49:59;29.60;37.20
13093;DHT22;6612;49.568;11.000;2023-05-21T11:52:28;29.60;37.50
13093;DHT22;6612;49.568;11.000;2023-05-21T11:54:55;29.60;37.70
13093;DHT22;6612;49.568;11.000;2023-05-21T11:57:26;29.60;37.20
13093;DHT22;6612;49.568;11.000;2023-05-21T11:59:55;29.60;36.90
13093;DHT22;6612;49.568;11.000;2023-05-21T12:02:25;29.60;37.00
13093;DHT22;6612;49.568;11.000;2023-05-21T12:04:54;29.50;36.80
13093;DHT22;6612;49.568;11.000;2023-05-21T12:07:26;29.50;37.00
13093;DHT22;6612;49.568;11.000;2023-05-21T12:09:54;29.50;37.00
13093;DHT22;6612;49.568;11.000;2023-05-21T12:12:24;29.60;36.60
13093;DHT22;6612;49.568;11.000;2023-05-21T12:14:52;29.60;36.20
13093;DHT22;6612;49.568;11.000;2023-05-21T12:17:20;29.60;36.00
13093;DHT22;6612;49.568;11.000;2023-05-21T12:19:50;29.60;36.00
13093;DHT22;6612;49.568;11.000;2023-05-21T12:22:19;29.60;35.40
13093;DHT22;6612;49.568;11.000;2023-05-21T12:24:46;29.60;35.00
13093;DHT22;6612;49.568;11.000;2023-05-21T12:27:14;29.60;35.20
13093;DHT22;6612;49.568;11.000;2023-05-21T12:29:42;29.70;35.10
13093;DHT22;6612;49.568;11.000;2023-05-21T12:32:10;29.70;34.90
13093;DHT22;6612;49.568;11.000;2023-05-21T12:34:39;29.80;35.00
13093;DHT22;6612;49.568;11.000;2023-05-21T12:37:07;29.90;34.90
13093;DHT22;6612;49.568;11.000;2023-05-21T12:39:40;30.00;34.60
13093;DHT22;6612;49.568;11.000;2023-05-21T12:42:07;30.10;33.80
13093;DHT22;6612;49.568;11.000;2023-05-21T12:44:34;30.20;34.40
13093;DHT22;6612;49.568;11.000;2023-05-21T12:47:03;30.30;34.20
13093;DHT22;6612;49.568;11.000;2023-05-21T12:49:33;30.40;34.10
13093;DHT22;6612;49.568;11.000;2023-05-21T12:52:04;30.50;34.60
13093;DHT22;6612;49.568;11.000;2023-05-21T12:54:36;30.70;33.80
13093;DHT22;6612;49.568;11.000;2023-05-21T12:57:09;30.70;33.90
13093;DHT22;6612;49.568;11.000;2023-05-21T12:59:54;30.90;34.50
13093;DHT22;6612;49.568;11.000;2023-05-21T13:02:23;30.90;31.80
13093;DHT22;6612;49.568;11.000;2023-05-21T13:04:54;31.00;33.00
13093;DHT22;6612;49.568;11.000;2023-05-21T13:07:23;31.00;33.00
13093;DHT22;6612;49.568;11.000;2023-05-21T13:09:51;31.00;32.40
13093;DHT22;6612;49.568;11.000;2023-05-21T13:12:21;31.00;31.90
13093;DHT22;6612;49.568;11.000;2023-05-21T13:14:49;30.90;31.10
13093;DHT22;6612;49.568;11.000;2023-05-21T13:17:16;30.80;31.00
13093;DHT22;6612;49.568;11.000;2023-05-21T13:20:03;30.80;30.80
13093;DHT22;6612;49.568;11.000;2023-05-21T13:22:31;30.70;30.70
13093;DHT22;6612;49.568;11.000;2023-05-21T13:24:58;30.60;31.00
13093;DHT22;6612;49.568;11.000;2023-05-21T13:27:26;30.60;31.00
13093;DHT22;6612;49.568;11.000;2023-05-21T13:29:53;30.50;31.00
13093;DHT22;6612;49.568;11.000;2023-05-21T13:32:21;30.50;31.00
13093;DHT22;6612;49.568;11.000;2023-05-21T13:34:47;30.50;31.00
13093;DHT22;6612;49.568;11.000;2023-05-21T13:37:15;30.50;31.20
13093;DHT22;6612;49.568;11.000;2023-05-21T13:39:42;30.50;31.50
13093;DHT22;6612;49.568;11.000;2023-05-21T13:42:09;30.60;31.50
13093;DHT22;6612;49.568;11.000;2023-05-21T13:44:37;30.60;32.10
13093;DHT22;6612;49.568;11.000;2023-05-21T13:47:05;30.70;31.70
13093;DHT22;6612;49.568;11.000;2023-05-21T13:49:32;30.80;31.00
13093;DHT22;6612;49.568;11.000;2023-05-21T13:51:59;30.80;30.80
13093;DHT22;6612;49.568;11.000;2023-05-21T13:54:27;30.90;30.80
13093;DHT22;6612;49.568;11.000;2023-05-21T13:56:54;30.90;30.40
13093;DHT22;6612;49.568;11.000;2023-05-21T13:59:21;30.90;30.40
13093;DHT22;6612;49.568;11.000;2023-05-21T14:01:50;31.00;30.50
13093;DHT22;6612;49.568;11.000;2023-05-21T14:04:18;31.00;30.30
13093;DHT22;6612;49.568;11.000;2023-05-21T14:06:45;31.10;31.00
13093;DHT22;6612;49.568;11.000;2023-05-21T14:09:13;31.10;30.00
13093;DHT22;6612;49.568;11.000;2023-05-21T14:11:40;31.10;30.20
13093;DHT22;6612;49.568;11.000;2023-05-21T14:14:07;31.20;30.50
13093;DHT22;6612;49.568;11.000;2023-05-21T14:16:34;31.20;29.90
13093;DHT22;6612;49.568;11.000;2023-05-21T14:19:02;31.20;29.60
13093;DHT22;6612;49.568;11.000;2023-05-21T14:21:29;31.20;29.50
13093;DHT22;6612;49.568;11.000;2023-05-21T14:23:57;31.20;29.40
13093;DHT22;6612;49.568;11.000;2023-05-21T14:26:24;31.20;28.70
13093;DHT22;6612;49.568;11.000;2023-05-21T14:28:51;31.20;28.60
13093;DHT22;6612;49.568;11.000;2023-05-21T14:31:18;31.10;28.50
13093;DHT22;6612;49.568;11.000;2023-05-21T14:33:46;31.10;28.60
13093;DHT22;6612;49.568;11.000;2023-05-21T14:36:14;31.00;28.10
13093;DHT22;6612;49.568;11.000;2023-05-21T14:38:41;30.90;28.20
13093;DHT22;6612;49.568;11.000;2023-05-21T14:41:08;30.90;27.80
13093;DHT22;6612;49.568;11.000;2023-05-21T14:43:35;30.80;28.10
13093;DHT22;6612;49.568;11.000;2023-05-21T14:46:02;30.80;28.20
13093;DHT22;6612;49.568;11.000;2023-05-21T14:48:29;30.70;27.90
13093;DHT22;6612;49.568;11.000;2023-05-21T14:50:56;30.70;28.10
13093;DHT22;6612;49.568;11.000;2023-05-21T14:53:25;30.70;28.20
13093;DHT22;6612;49.568;11.000;2023-05-21T14:55:52;30.60;28.30
13093;DHT22;6612;49.568;11.000;2023-05-21T14:58:19;30.60;28.10
13093;DHT22;6612;49.568;11.000;2023-05-21T15:00:46;30.60;28.30
13093;DHT22;6612;49.568;11.000;2023-05-21T15:03:13;30.60;28.50
13093;DHT22;6612;49.568;11.000;2023-05-21T15:05:40;30.60;28.70
13093;DHT22;6612;49.568;11.000;2023-05-21T15:08:07;30.60;28.60
13093;DHT22;6612;49.568;11.000;2023-05-21T15:10:36;30.60;28.30
13093;DHT22;6612;49.568;11.000;2023-05-21T15:13:03;30.60;28.10
13093;DHT22;6612;49.568;11.000;2023-05-21T15:15:30;30.50;28.10
13093;DHT22;6612;49.568;11.000;2023-05-21T15:17:57;30.50;28.00
13093;DHT22;6612;49.568;11.000;2023-05-21T15:20:24;30.50;28.20
13093;DHT22;6612;49.568;11.000;2023-05-21T15:22:52;30.50;28.20
13093;DHT22;6612;49.568;11.000;2023-05-21T15:25:19;30.50;28.40
13093;DHT22;6612;49.568;11.000;2023-05-21T15:27:47;30.50;29.10
13093;DHT22;6612;49.568;11.000;2023-05-21T15:30:14;30.50;28.30
13093;DHT22;6612;49.568;11.000;2023-05-21T15:32:41;30.50;28.20
13093;DHT22;6612;49.568;11.000;2023-05-21T15:35:09;30.40;28.20
13093;DHT22;6612;49.568;11.000;2023-05-21T15:37:35;30.40;28.10
13093;DHT22;6612;49.568;11.000;2023-05-21T15:40:03;30.40;28.10